Ana Sayfa
METAR-TAF:

METAR-TAF

Havaalanları :

Rock Hill/York County Airport (Bryant Field)

Rock Hill, Güney Carolina, Amerika Birleşik Devletleri

Enlem: 34-59-02N, Boylam: 081-03-21W, yükseklik: 204 m

Güncel hava durumu gözlemi

Rapor saat 05:47 UTC de 10 dakika önce yapıldı.
Rüzgar batıdan 4 kt
Sıcaklık 12°C
Nem 94%
Basınç 1024 hPa
Görüş mesafesi: 3.2 km
200 ft yükseklikte parçalı bulutlu
Pus

METAR: KUZA 040547Z AUTO 28004KT 2SM BR SCT002 12/11 A3023 RMK AO2 VIS 3/4V4 T01170111

Saat: 00:57 (05:57 UTC)


TAF: eksik

4.000'den fazla havaalanı için hava durumu gözlemleri ve tahminleri (METAR ve TAF raporları).

Kullanılabilir istasyonlar harita üzerinde sarı ve kırmızı noktalarla gösterilir.

İstasyonun adını görmek için fareyi noktanın üzerinde gezdirin.

Sonrasında hava gözlem ve tahminlerini görmek için tıklayın.

Haritayı değiştirmek için: yaklaştırmak için siyah artı işaretli yeşil düğmeye ve uzaklaştırmak için de eksi işaretli düğmeye hızla tıklayın; bitişik haritalar için yeşil okları kullanın.


METAR-TAF: